Time;durP1;ratioP1;P1;durP2;ratioP2;P2;SDS_P1;SDS_P2;PMS_P1;PMS_P2;Temp;Humidity;BMP_temperature;BMP_pressure;BME280_temperature;BME280_humidity;BME280_pressure;Samples;Min_cycle;Max_cycle;Signal;HPM_P1;HPM_P2
2024/01/18 00:01:11;;;;;;;1.77;1.67;;;;;;;3.53;89.82;97387.97;5113760;28;20078;-73
2024/01/18 00:03:40;;;;;;;0.77;0.77;;;;;;;3.54;89.53;97379.56;5114048;28;20127;-73
2024/01/18 00:06:09;;;;;;;0.80;0.80;;;;;;;3.54;89.48;97373.69;5112890;28;20036;-73
2024/01/18 00:08:40;;;;;;;1.27;1.17;;;;;;;3.53;90.07;97380.41;5114202;28;20069;-73
2024/01/18 00:11:09;;;;;;;4.60;2.97;;;;;;;3.52;89.15;97376.25;5113955;28;20043;-73
2024/01/18 00:13:37;;;;;;;0.93;0.90;;;;;;;3.53;89.24;97369.53;5114006;28;20427;-73
2024/01/18 00:16:08;;;;;;;4.30;3.53;;;;;;;3.52;89.32;97368.69;5113614;28;20043;-73
2024/01/18 00:18:37;;;;;;;2.25;2.10;;;;;;;3.53;89.40;97372.84;5114192;28;20047;-73
2024/01/18 00:21:07;;;;;;;2.80;2.25;;;;;;;3.52;89.69;97371.19;5113898;28;20051;-73
2024/01/18 00:23:36;;;;;;;1.33;1.23;;;;;;;3.52;89.12;97366.16;5112706;28;20040;-73
2024/01/18 00:26:06;;;;;;;1.97;1.83;;;;;;;3.52;89.42;97351.03;5112535;28;20040;-73
2024/01/18 00:28:35;;;;;;;1.48;1.38;;;;;;;3.53;89.64;97356.91;5113630;28;20276;-72
2024/01/18 00:31:04;;;;;;;2.60;1.80;;;;;;;3.53;89.58;97352.69;5112398;28;20445;-73
2024/01/18 00:33:34;;;;;;;1.50;1.40;;;;;;;3.55;90.06;97366.09;5113493;28;20486;-73
2024/01/18 00:36:03;;;;;;;3.88;3.03;;;;;;;3.55;89.33;97385.47;5114151;28;20043;-73
2024/01/18 00:38:32;;;;;;;0.85;0.85;;;;;;;3.55;89.60;97371.13;5113246;28;20067;-72
2024/01/18 00:41:01;;;;;;;9.73;2.05;;;;;;;3.54;89.92;97372.00;5117458;28;20113;-73
2024/01/18 00:43:32;;;;;;;1.35;1.25;;;;;;;3.54;89.88;97374.53;5117839;28;20054;-73
2024/01/18 00:46:04;;;;;;;2.00;1.88;;;;;;;3.53;89.21;97360.25;5117743;28;20047;-73
2024/01/18 00:48:33;;;;;;;0.80;0.80;;;;;;;3.53;89.53;97367.81;5116264;28;20043;-73
2024/01/18 00:51:02;;;;;;;0.85;0.85;;;;;;;3.54;90.04;97364.44;5115889;28;20066;-73
2024/01/18 00:53:31;;;;;;;1.23;1.13;;;;;;;3.55;90.25;97353.50;5115521;28;20130;-73
2024/01/18 00:56:00;;;;;;;2.03;1.40;;;;;;;3.56;90.14;97357.69;5117057;28;20052;-73
2024/01/18 00:58:30;;;;;;;2.25;1.67;;;;;;;3.58;89.75;97360.19;5117167;28;20067;-73
2024/01/18 01:00:59;;;;;;;2.05;1.95;;;;;;;3.56;89.52;97361.91;5116816;28;20085;-73
2024/01/18 01:03:29;;;;;;;1.10;1.02;;;;;;;3.57;89.16;97351.81;5117056;28;20071;-73
2024/01/18 01:05:58;;;;;;;1.67;1.52;;;;;;;3.59;89.65;97347.59;5116703;28;20036;-73
2024/01/18 01:08:28;;;;;;;1.65;1.50;;;;;;;3.60;89.97;97346.72;5117220;28;20031;-72
2024/01/18 01:10:57;;;;;;;0.90;0.90;;;;;;;3.51;89.51;97323.28;5115600;28;20047;-73
2024/01/18 01:13:26;;;;;;;2.95;2.53;;;;;;;3.60;89.76;97338.34;5115387;28;20067;-73
2024/01/18 01:15:56;;;;;;;2.63;2.43;;;;;;;3.60;89.56;97331.59;5116811;28;20039;-73
2024/01/18 01:18:25;;;;;;;0.90;0.90;;;;;;;3.60;89.78;97321.50;5116744;28;20272;-73
2024/01/18 01:20:54;;;;;;;1.65;1.17;;;;;;;3.61;89.87;97320.66;5116605;28;20439;-73
2024/01/18 01:23:23;;;;;;;0.70;0.70;;;;;;;3.61;89.34;97315.63;5115163;28;20032;-73
2024/01/18 01:25:51;;;;;;;1.70;1.47;;;;;;;3.62;89.40;97309.75;5116746;28;20382;-73
2024/01/18 01:28:21;;;;;;;1.85;1.75;;;;;;;3.62;89.97;97312.25;5116367;28;20139;-73
2024/01/18 01:30:49;;;;;;;1.37;0.93;;;;;;;3.62;89.37;97303.84;5116471;28;20469;-73
2024/01/18 01:33:20;;;;;;;1.02;1.02;;;;;;;3.62;89.64;97298.81;5116326;28;20497;-73
2024/01/18 01:35:49;;;;;;;0.30;0.30;;;;;;;3.63;89.59;97296.25;5116351;27;20054;-72
2024/01/18 01:38:17;;;;;;;0.65;0.65;;;;;;;3.64;90.02;97295.41;5115984;28;20039;-73
2024/01/18 01:40:46;;;;;;;0.60;0.60;;;;;;;3.65;89.80;97286.16;5116239;28;20130;-73
2024/01/18 01:43:16;;;;;;;0.90;0.83;;;;;;;3.64;89.89;97284.50;5116171;28;20493;-73
2024/01/18 01:45:46;;;;;;;1.02;1.00;;;;;;;3.66;89.86;97292.88;5114681;28;20288;-73
2024/01/18 01:48:15;;;;;;;1.60;1.50;;;;;;;3.66;89.59;97283.63;5115674;28;20508;-73
2024/01/18 01:50:47;;;;;;;;;;;;;;;3.66;89.72;97273.53;5114253;28;20039;-73
2024/01/18 01:53:19;;;;;;;1.58;1.38;;;;;;;3.68;89.65;97281.91;5115606;28;19923;-73
2024/01/18 01:55:48;;;;;;;1.77;1.67;;;;;;;3.68;89.77;97276.03;5097928;28;20516;-73
2024/01/18 01:58:18;;;;;;;0.67;0.67;;;;;;;3.68;89.69;97266.78;5116395;28;20123;-73
2024/01/18 02:00:48;;;;;;;1.13;1.02;;;;;;;3.67;89.60;97260.06;5114590;28;20150;-73
2024/01/18 02:03:17;;;;;;;0.52;0.52;;;;;;;3.69;89.49;97252.50;5114538;28;20046;-73
2024/01/18 02:05:47;;;;;;;2.15;1.75;;;;;;;3.70;90.02;97260.03;5115750;27;20099;-73
2024/01/18 02:08:16;;;;;;;2.78;2.58;;;;;;;3.69;90.09;97248.28;5097120;28;20066;-73
2024/01/18 02:10:46;;;;;;;0.65;0.65;;;;;;;3.70;89.96;97244.91;5115376;28;20039;-73
2024/01/18 02:13:17;;;;;;;1.27;1.17;;;;;;;3.70;89.76;97239.84;5114186;28;20046;-73
2024/01/18 02:15:47;;;;;;;1.02;1.02;;;;;;;3.71;89.87;97246.56;5114658;28;20055;-73
2024/01/18 02:18:16;;;;;;;1.65;1.40;;;;;;;3.74;90.00;97246.50;5113955;28;20051;-73
2024/01/18 02:20:45;;;;;;;0.80;0.80;;;;;;;3.64;90.24;97224.81;5114447;28;20036;-73
2024/01/18 02:23:16;;;;;;;0.80;0.80;;;;;;;3.76;90.23;97249.03;5115360;28;20093;-73
2024/01/18 02:25:47;;;;;;;1.20;1.15;;;;;;;3.75;90.21;97238.09;5115116;28;20510;-73
2024/01/18 02:28:17;;;;;;;2.10;1.90;;;;;;;3.75;89.60;97243.16;5113787;28;20043;-73
2024/01/18 02:30:46;;;;;;;2.15;1.95;;;;;;;3.75;89.32;97238.09;5114030;28;20060;-73
2024/01/18 02:33:15;;;;;;;1.87;1.70;;;;;;;3.75;89.47;97225.50;5114844;27;20351;-71
2024/01/18 02:35:44;;;;;;;1.95;1.85;;;;;;;3.38;89.61;97159.59;5096642;28;20187;-71
2024/01/18 02:38:13;;;;;;;1.50;1.40;;;;;;;3.79;90.15;97229.63;5115121;28;20031;-74
2024/01/18 02:40:42;;;;;;;0.40;0.40;;;;;;;3.81;90.17;97230.47;5114736;28;20523;-71
2024/01/18 02:43:12;;;;;;;0.68;0.68;;;;;;;3.81;89.62;97233.00;5114982;28;20477;-71
2024/01/18 02:45:41;;;;;;;1.83;1.73;;;;;;;3.53;89.58;97177.91;5113459;28;20036;-73
2024/01/18 02:48:10;;;;;;;1.37;0.93;;;;;;;3.83;90.26;97228.75;5114539;28;20045;-74
2024/01/18 02:50:42;;;;;;;3.17;2.08;;;;;;;3.84;89.95;97227.09;5114763;28;20280;-74
2024/01/18 02:53:10;;;;;;;1.00;0.98;;;;;;;3.84;89.94;97227.88;5114447;28;20130;-72
2024/01/18 02:55:39;;;;;;;3.10;1.95;;;;;;;3.86;90.28;97223.66;5114317;28;20127;-73
2024/01/18 02:58:08;;;;;;;1.27;1.10;;;;;;;3.89;90.50;97215.22;5113452;28;20517;-73
2024/01/18 03:00:39;;;;;;;2.20;1.87;;;;;;;3.89;90.54;97216.03;5113318;28;20712;-73
2024/01/18 03:03:08;;;;;;;0.93;0.90;;;;;;;3.92;90.37;97223.59;5113034;28;20769;-73
2024/01/18 03:05:37;;;;;;;2.05;1.75;;;;;;;3.92;90.39;97220.22;5114251;28;20059;-73
2024/01/18 03:08:06;;;;;;;6.03;1.63;;;;;;;3.95;90.06;97236.16;5114573;28;20066;-73
2024/01/18 03:10:35;;;;;;;0.60;0.60;;;;;;;3.95;90.08;97226.06;5114171;27;20519;-73
2024/01/18 03:13:04;;;;;;;5.70;2.20;;;;;;;3.95;90.62;97228.59;5113230;28;20129;-73
2024/01/18 03:15:33;;;;;;;1.60;1.17;;;;;;;3.96;90.57;97232.75;5096187;28;20135;-73
2024/01/18 03:18:03;;;;;;;1.05;0.98;;;;;;;3.97;90.35;97241.16;5113229;28;20032;-73
2024/01/18 03:20:32;;;;;;;1.27;1.17;;;;;;;3.96;90.17;97235.28;5114196;28;20040;-73
2024/01/18 03:23:01;;;;;;;1.00;0.97;;;;;;;3.96;90.12;97242.84;5095942;28;20147;-73
2024/01/18 03:25:30;;;;;;;0.77;0.63;;;;;;;3.81;90.18;97214.50;5114257;28;20043;-73
2024/01/18 03:27:59;;;;;;;1.55;1.45;;;;;;;3.97;90.78;97236.97;5114240;28;20374;-74
2024/01/18 03:30:28;;;;;;;2.05;1.75;;;;;;;3.97;90.34;97246.22;5114203;28;20040;-73
2024/01/18 03:32:57;;;;;;;1.25;1.13;;;;;;;3.97;90.53;97234.44;5113802;28;20047;-74
2024/01/18 03:35:28;;;;;;;0.70;0.70;;;;;;;3.96;90.71;97232.75;5113025;28;20128;-73
2024/01/18 03:37:57;;;;;;;0.38;0.38;;;;;;;3.96;90.63;97242.84;5114220;28;20047;-71
2024/01/18 03:40:26;;;;;;;0.75;0.75;;;;;;;3.95;90.75;97236.16;5114114;28;20036;-74
2024/01/18 03:42:55;;;;;;;4.10;2.20;;;;;;;3.98;90.70;97235.28;5114149;28;20035;-74
2024/01/18 03:45:23;;;;;;;1.33;1.25;;;;;;;4.00;90.82;97239.44;5114017;28;20099;-72
2024/01/18 03:47:52;;;;;;;3.92;3.20;;;;;;;4.00;90.43;97236.94;5113749;28;20122;-71
2024/01/18 03:50:21;;;;;;;3.83;2.80;;;;;;;3.97;90.93;97234.44;5112825;28;20114;-72
2024/01/18 03:52:52;;;;;;;0.63;0.63;;;;;;;4.00;90.29;97244.50;5114248;28;20523;-72
2024/01/18 03:55:21;;;;;;;0.43;0.43;;;;;;;4.00;90.54;97244.50;5113544;28;20130;-72
2024/01/18 03:57:50;;;;;;;0.30;0.30;;;;;;;4.00;90.76;97254.59;5113605;28;20063;-72
2024/01/18 04:00:20;;;;;;;0.50;0.50;;;;;;;4.01;90.84;97243.63;5113945;28;20487;-72
2024/01/18 04:02:48;;;;;;;2.05;1.95;;;;;;;4.01;90.69;97243.63;5113463;28;20713;-72
2024/01/18 04:05:17;;;;;;;2.17;1.63;;;;;;;4.01;91.06;97255.41;5113585;28;20414;-72
2024/01/18 04:07:46;;;;;;;4.60;1.15;;;;;;;4.00;91.03;97249.53;5113857;28;20350;-72
2024/01/18 04:10:17;;;;;;;1.60;1.50;;;;;;;4.00;90.71;97249.53;5113843;28;20067;-72
2024/01/18 04:12:46;;;;;;;1.67;1.15;;;;;;;4.00;90.29;97246.19;5095787;28;20050;-72
2024/01/18 04:15:14;;;;;;;0.30;0.30;;;;;;;4.01;90.55;97251.19;5117225;28;20043;-72
2024/01/18 04:17:44;;;;;;;1.48;1.38;;;;;;;4.00;90.54;97249.53;5117543;28;20165;-72
2024/01/18 04:20:16;;;;;;;1.13;1.08;;;;;;;3.98;90.98;97236.09;5117301;28;20126;-72
2024/01/18 04:22:46;;;;;;;0.80;0.80;;;;;;;3.99;90.86;97241.97;5117425;28;20048;-72
2024/01/18 04:25:16;;;;;;;5.03;2.53;;;;;;;3.98;90.46;97246.19;5117573;28;20040;-72
2024/01/18 04:27:45;;;;;;;2.55;2.35;;;;;;;3.98;90.36;97246.19;5117695;28;20047;-72
2024/01/18 04:30:14;;;;;;;0.77;0.77;;;;;;;3.98;90.94;97245.38;5115795;28;20047;-72
2024/01/18 04:32:43;;;;;;;1.95;1.15;;;;;;;4.00;90.33;97253.75;5117511;28;20043;-72
2024/01/18 04:35:12;;;;;;;0.60;0.60;;;;;;;4.01;90.75;97246.16;5117127;28;20036;-72
2024/01/18 04:37:42;;;;;;;1.15;1.15;;;;;;;4.01;91.12;97251.19;5117139;28;20287;-72
2024/01/18 04:40:11;;;;;;;3.15;2.50;;;;;;;4.02;90.78;97250.34;5117331;28;20055;-72
2024/01/18 04:42:42;;;;;;;2.33;2.10;;;;;;;4.00;90.96;97247.03;5117348;28;20043;-72
2024/01/18 04:45:11;;;;;;;3.85;1.23;;;;;;;4.02;90.77;97245.31;5117590;28;20043;-72
2024/01/18 04:47:41;;;;;;;9.40;4.43;;;;;;;4.03;90.64;97243.63;5117226;28;20140;-72
2024/01/18 04:50:10;;;;;;;0.98;0.98;;;;;;;4.01;90.52;97246.16;5117184;28;20135;-72
2024/01/18 04:52:41;;;;;;;3.92;2.67;;;;;;;4.03;90.51;97238.56;5117141;28;20093;-72
2024/01/18 04:55:09;;;;;;;4.60;4.18;;;;;;;4.03;90.81;97249.47;5116518;28;20108;-72
2024/01/18 04:57:39;;;;;;;2.88;2.65;;;;;;;4.00;91.05;97244.50;5117036;28;20062;-72
2024/01/18 05:00:12;;;;;;;3.22;2.60;;;;;;;3.99;90.79;97247.88;5098780;28;20047;-72
2024/01/18 05:02:42;;;;;;;2.63;2.25;;;;;;;4.00;90.67;97244.50;5116928;28;20134;-72
2024/01/18 05:05:12;;;;;;;2.33;2.03;;;;;;;4.01;91.00;97245.31;5117311;28;20473;-72
2024/01/18 05:07:42;;;;;;;2.75;2.55;;;;;;;4.00;90.81;97249.53;5116597;28;20131;-72
2024/01/18 05:10:12;;;;;;;4.82;1.35;;;;;;;3.98;90.79;97236.09;5115413;28;20064;-71
2024/01/18 05:12:41;;;;;;;2.97;2.72;;;;;;;3.99;90.74;97242.81;5117096;28;20089;-72
2024/01/18 05:15:11;;;;;;;6.07;4.35;;;;;;;3.99;90.88;97241.97;5116476;28;20097;-72
2024/01/18 05:17:43;;;;;;;5.53;3.05;;;;;;;3.98;91.39;97248.72;5116696;28;20039;-71
2024/01/18 05:20:15;;;;;;;4.10;3.08;;;;;;;3.99;91.39;97252.91;5116610;28;20035;-71
2024/01/18 05:22:44;;;;;;;3.10;2.80;;;;;;;3.99;91.45;97262.16;5116269;28;20131;-72
2024/01/18 05:25:13;;;;;;;2.03;0.93;;;;;;;3.93;91.08;97257.22;5116453;28;20071;-72
2024/01/18 05:27:42;;;;;;;1.25;1.15;;;;;;;3.97;91.66;97274.81;5116458;28;20485;-72
2024/01/18 05:30:14;;;;;;;1.75;1.65;;;;;;;3.97;91.70;97276.50;5116046;28;20097;-72
2024/01/18 05:32:43;;;;;;;1.40;1.30;;;;;;;3.97;91.78;97284.91;5116124;28;20040;-71
2024/01/18 05:35:12;;;;;;;4.55;1.63;;;;;;;3.98;91.58;97299.16;5116623;28;20122;-71
2024/01/18 05:37:41;;;;;;;1.00;0.93;;;;;;;3.98;91.90;97295.84;5116325;28;20036;-70
2024/01/18 05:40:10;;;;;;;2.70;1.73;;;;;;;3.97;91.79;97300.03;5114748;28;20286;-69
2024/01/18 05:42:40;;;;;;;1.77;1.63;;;;;;;3.98;92.05;97301.69;5115885;28;20555;-70
2024/01/18 05:45:09;;;;;;;0.83;0.77;;;;;;;3.97;92.15;97305.09;5114701;28;20504;-69
2024/01/18 05:47:40;;;;;;;0.65;0.65;;;;;;;3.96;91.88;97310.97;5116360;28;20067;-70
2024/01/18 05:50:09;;;;;;;1.73;1.63;;;;;;;3.95;92.27;97311.84;5116045;28;20431;-69
2024/01/18 05:52:38;;;;;;;1.42;1.33;;;;;;;3.94;91.90;97297.53;5114800;28;20035;-69
2024/01/18 05:55:07;;;;;;;1.70;1.60;;;;;;;3.95;92.41;97309.31;5115318;28;20043;-71
2024/01/18 05:57:37;;;;;;;1.08;1.05;;;;;;;3.95;92.19;97301.75;5115915;28;20044;-71
2024/01/18 06:00:08;;;;;;;1.38;1.27;;;;;;;3.96;92.31;97310.97;5114700;28;20382;-70
2024/01/18 06:02:39;;;;;;;2.10;1.92;;;;;;;3.97;91.99;97297.50;5115488;28;20047;-70
2024/01/18 06:05:09;;;;;;;2.10;1.75;;;;;;;3.97;92.58;97305.09;5115689;28;20451;-68
2024/01/18 06:07:40;;;;;;;1.77;1.67;;;;;;;3.96;92.24;97300.88;5115772;28;20063;-68
2024/01/18 06:10:10;;;;;;;0.77;0.77;;;;;;;3.97;92.39;97289.94;5115721;28;20394;-69
2024/01/18 06:12:38;;;;;;;3.05;2.67;;;;;;;3.98;92.48;97281.50;5114251;28;20071;-70
2024/01/18 06:15:10;;;;;;;4.40;2.42;;;;;;;3.96;93.24;97282.38;5115747;28;20043;-69
2024/01/18 06:17:41;;;;;;;1.27;1.17;;;;;;;3.95;93.25;97298.38;5115362;28;20052;-71
2024/01/18 06:20:14;;;;;;;1.25;1.15;;;;;;;3.95;93.29;97301.75;5115505;28;20096;-69
2024/01/18 06:22:43;;;;;;;1.38;1.27;;;;;;;3.94;93.30;97300.06;5115284;28;20047;-70
2024/01/18 06:25:12;;;;;;;1.83;1.73;;;;;;;3.94;93.35;97297.53;5115508;28;20043;-69
2024/01/18 06:27:41;;;;;;;6.53;3.73;;;;;;;3.93;93.46;97303.47;5115438;28;20036;-69
2024/01/18 06:30:11;;;;;;;1.03;1.00;;;;;;;3.93;93.25;97302.63;5115184;28;20070;-69
2024/01/18 06:32:41;;;;;;;2.70;1.80;;;;;;;3.91;93.77;97300.09;5115599;28;20303;-69
2024/01/18 06:35:11;;;;;;;5.07;1.60;;;;;;;3.93;93.81;97307.66;5096930;28;20066;-69
2024/01/18 06:37:40;;;;;;;1.05;1.00;;;;;;;3.93;93.67;97303.47;5114417;28;20051;-69
2024/01/18 06:40:10;;;;;;;6.27;4.30;;;;;;;3.92;94.19;97311.88;5115216;28;20039;-70
2024/01/18 06:42:39;;;;;;;2.40;2.20;;;;;;;3.95;93.97;97316.88;5113956;28;20557;-70
2024/01/18 06:45:09;;;;;;;4.33;2.27;;;;;;;3.92;94.13;97324.50;5114960;28;20043;-69
2024/01/18 06:47:42;;;;;;;3.13;2.63;;;;;;;3.92;93.95;97321.13;5114841;28;20294;-70
2024/01/18 06:50:13;;;;;;;1.63;1.52;;;;;;;3.92;93.96;97306.81;5113264;28;20049;-70
2024/01/18 06:52:42;;;;;;;4.13;2.50;;;;;;;3.92;94.24;97308.50;5114979;28;20094;-69
2024/01/18 06:55:10;;;;;;;3.90;3.00;;;;;;;3.92;94.44;97306.81;5114426;28;20525;-69
2024/01/18 06:57:40;;;;;;;1.17;1.07;;;;;;;3.91;94.53;97294.25;5114837;28;20040;-69
2024/01/18 07:00:09;;;;;;;1.40;1.30;;;;;;;3.91;94.55;97300.09;5114838;28;20305;-70
2024/01/18 07:02:38;;;;;;;1.98;1.88;;;;;;;3.90;94.45;97303.50;5114805;28;20044;-71
2024/01/18 07:05:09;;;;;;;2.17;2.05;;;;;;;3.90;95.15;97303.50;5115022;28;20047;-69
2024/01/18 07:07:38;;;;;;;1.33;1.23;;;;;;;3.92;94.86;97311.88;5113392;28;20055;-70
2024/01/18 07:10:08;;;;;;;1.88;1.63;;;;;;;3.88;95.08;97309.41;5096177;28;20058;-70
2024/01/18 07:12:37;;;;;;;2.25;2.08;;;;;;;3.93;94.97;97323.66;5114983;28;20031;-70
2024/01/18 07:15:07;;;;;;;2.20;2.07;;;;;;;3.94;95.01;97320.25;5113191;28;20046;-69
2024/01/18 07:17:36;;;;;;;3.83;3.47;;;;;;;3.96;95.18;97310.97;5114881;28;20279;-69
2024/01/18 07:20:06;;;;;;;1.07;1.00;;;;;;;3.99;95.64;97305.91;5114218;28;20503;-69
2024/01/18 07:22:37;;;;;;;1.50;1.30;;;;;;;4.01;95.25;97316.78;5114519;28;20140;-69
2024/01/18 07:25:07;;;;;;;1.63;1.52;;;;;;;4.05;95.53;97310.03;5114485;28;20042;-69
2024/01/18 07:27:37;;;;;;;1.83;1.70;;;;;;;4.07;95.54;97300.75;5113248;28;20122;-70
2024/01/18 07:30:08;;;;;;;9.17;2.53;;;;;;;4.05;95.75;97290.66;5112876;28;20048;-71
2024/01/18 07:32:37;;;;;;;1.55;1.15;;;;;;;4.03;95.26;97284.81;5108171;28;20040;-70
2024/01/18 07:35:06;;;;;;;1.63;1.53;;;;;;;4.06;95.79;97289.81;5093557;28;20119;-69
2024/01/18 07:37:34;;;;;;;1.23;1.17;;;;;;;4.06;96.00;97294.88;5093911;28;20090;-70
2024/01/18 07:40:06;;;;;;;2.55;2.35;;;;;;;4.03;96.00;97299.94;5093575;28;20051;-69
2024/01/18 07:42:35;;;;;;;2.17;1.38;;;;;;;4.06;95.78;97302.44;5093592;28;20406;-70
2024/01/18 07:45:11;;;;;;;2.10;1.90;;;;;;;4.07;95.98;97301.59;5092596;28;20048;-70
2024/01/18 07:47:40;;;;;;;2.45;2.25;;;;;;;4.08;96.03;97299.88;5094279;28;20051;-69
2024/01/18 07:50:10;;;;;;;0.67;0.67;;;;;;;3.75;95.92;97258.28;5097523;28;20070;-68
2024/01/18 07:52:59;;;;;;;3.85;3.00;;;;;;;4.07;95.98;97306.63;5096873;28;20044;-68
2024/01/18 07:55:29;;;;;;;1.77;1.67;;;;;;;3.94;96.10;97289.97;5098543;28;20066;-69
2024/01/18 07:57:58;;;;;;;3.33;3.03;;;;;;;4.08;95.78;97305.75;5098250;28;20390;-69
2024/01/18 08:00:26;;;;;;;3.20;2.95;;;;;;;4.06;96.55;97307.47;5097898;28;20532;-69
2024/01/18 08:02:55;;;;;;;2.50;2.13;;;;;;;4.10;96.28;97310.81;5097563;28;20044;-69
2024/01/18 08:05:27;;;;;;;2.53;2.33;;;;;;;4.11;96.37;97317.50;5097353;28;20280;-70
2024/01/18 08:07:56;;;;;;;1.30;1.17;;;;;;;4.15;96.26;97324.16;5097423;28;20498;-71
2024/01/18 08:10:25;;;;;;;5.72;2.15;;;;;;;4.15;96.49;97320.84;5096231;28;20043;-68
2024/01/18 08:12:55;;;;;;;1.90;1.80;;;;;;;4.11;96.33;97322.56;5097674;28;20063;-70
2024/01/18 08:15:24;;;;;;;1.35;1.20;;;;;;;4.15;96.60;97329.22;5097529;28;20044;-70
2024/01/18 08:17:53;;;;;;;4.77;1.67;;;;;;;4.10;96.81;97315.84;5097603;28;20036;-69
2024/01/18 08:20:23;;;;;;;1.17;1.08;;;;;;;4.16;96.14;97335.09;5097551;28;20131;-68
2024/01/18 08:22:52;;;;;;;1.95;1.85;;;;;;;4.14;96.89;97331.78;5097480;28;20051;-70
2024/01/18 08:25:22;;;;;;;2.28;1.83;;;;;;;4.15;96.35;97338.50;5102633;28;20070;-68
2024/01/18 08:27:53;;;;;;;;;;;;;;;4.16;96.37;97335.09;5108349;28;20040;-68
2024/01/18 08:30:25;;;;;;;1.75;1.48;;;;;;;4.12;96.82;97330.97;5107247;28;20022;-68
2024/01/18 08:32:55;;;;;;;2.90;2.65;;;;;;;4.18;96.52;97343.50;5105850;28;20044;-69
2024/01/18 08:35:25;;;;;;;3.85;2.33;;;;;;;4.19;96.77;97332.56;5106422;28;20048;-68
2024/01/18 08:37:53;;;;;;;1.75;1.65;;;;;;;4.20;96.82;97331.72;5107726;28;20112;-68
2024/01/18 08:40:22;;;;;;;2.40;1.90;;;;;;;4.21;96.62;97330.84;5106832;28;20047;-68
2024/01/18 08:42:51;;;;;;;1.70;1.60;;;;;;;4.22;96.81;97340.09;5105152;28;20327;-70
2024/01/18 08:45:20;;;;;;;1.20;0.70;;;;;;;4.20;96.89;97335.03;5106863;28;20450;-69
2024/01/18 08:47:50;;;;;;;1.73;1.63;;;;;;;4.23;96.52;97342.59;5107613;28;20029;-71
2024/01/18 08:50:19;;;;;;;1.98;1.85;;;;;;;4.23;96.62;97336.69;5096041;28;20075;-69
2024/01/18 08:52:51;;;;;;;2.22;2.03;;;;;;;4.22;97.15;97345.97;5096284;28;20036;-68
2024/01/18 08:55:20;;;;;;;4.50;3.13;;;;;;;4.25;96.74;97345.91;5096027;28;20048;-68
2024/01/18 08:57:49;;;;;;;7.85;3.85;;;;;;;4.27;96.95;97353.47;5095658;28;20044;-69
2024/01/18 09:00:19;;;;;;;2.13;2.00;;;;;;;4.27;97.10;97358.53;5100807;28;20048;-69
2024/01/18 09:02:48;;;;;;;2.58;2.17;;;;;;;4.26;96.57;97356.84;5096472;28;20048;-71
2024/01/18 09:05:20;;;;;;;7.90;2.38;;;;;;;4.27;96.88;97359.34;5095653;28;20047;-69
2024/01/18 09:07:49;;;;;;;1.58;1.48;;;;;;;4.26;97.02;97356.84;5096123;28;20044;-69
2024/01/18 09:10:19;;;;;;;4.47;3.10;;;;;;;4.31;97.09;97361.00;5096046;28;20383;-68
2024/01/18 09:12:48;;;;;;;2.00;1.48;;;;;;;4.34;96.92;97367.69;5106088;28;20269;-70
2024/01/18 09:15:18;;;;;;;3.33;3.03;;;;;;;4.36;97.14;97359.25;5104802;28;20068;-69
2024/01/18 09:17:46;;;;;;;4.18;2.08;;;;;;;4.40;97.07;97370.13;5106026;28;20126;-69
2024/01/18 09:20:15;;;;;;;;;;;;;;;4.43;97.02;97375.13;5107562;28;20048;-70
2024/01/18 09:22:46;;;;;;;3.30;2.58;;;;;;;4.44;97.39;97380.16;5105511;28;20010;-70
2024/01/18 09:25:14;;;;;;;1.05;0.98;;;;;;;4.48;97.17;97373.38;5104750;28;20509;-69
2024/01/18 09:27:44;;;;;;;5.47;2.55;;;;;;;4.50;97.45;97374.19;5104946;28;20036;-69
2024/01/18 09:30:13;;;;;;;0.82;0.82;;;;;;;4.52;96.96;97369.94;5104914;28;20062;-70
2024/01/18 09:32:42;;;;;;;2.75;2.42;;;;;;;4.54;96.93;97379.16;5104613;28;20036;-71
2024/01/18 09:35:12;;;;;;;2.57;2.37;;;;;;;4.58;97.53;97369.88;5103977;28;20028;-68
2024/01/18 09:37:41;;;;;;;2.08;1.88;;;;;;;4.62;97.26;97377.38;5104507;28;20079;-69
2024/01/18 09:40:12;;;;;;;1.48;1.38;;;;;;;4.65;97.54;97376.50;5105044;28;20131;-69
2024/01/18 09:42:46;;;;;;;2.70;2.50;;;;;;;4.69;97.48;97383.16;5113084;28;20119;-69
2024/01/18 09:45:16;;;;;;;3.72;2.20;;;;;;;4.74;97.25;97381.41;5116039;28;20097;-69
2024/01/18 09:47:45;;;;;;;2.37;2.17;;;;;;;4.78;97.79;97383.03;5113974;28;20075;-71
2024/01/18 09:50:19;;;;;;;2.03;1.90;;;;;;;4.81;97.83;97380.47;5106417;28;20126;-71
2024/01/18 09:52:49;;;;;;;2.08;1.95;;;;;;;4.48;97.46;97316.16;5104316;28;20360;-71
2024/01/18 09:55:19;;;;;;;;;;;;;;;4.89;97.67;97381.19;5103155;28;20135;-71
2024/01/18 09:57:49;;;;;;;1.77;1.67;;;;;;;4.93;97.81;97372.69;5105792;28;19920;-69
2024/01/18 10:00:22;;;;;;;3.63;2.95;;;;;;;4.97;97.94;97374.31;5111325;28;20105;-69
2024/01/18 10:02:52;;;;;;;1.48;1.38;;;;;;;5.02;97.68;97367.50;5108993;28;20499;-69
2024/01/18 10:05:21;;;;;;;;;;;;;;;5.08;98.13;97362.34;5113528;28;20100;-69
2024/01/18 10:07:50;;;;;;;3.83;2.00;;;;;;;5.10;97.86;97360.63;5115712;28;19926;-70
2024/01/18 10:10:21;;;;;;;2.10;1.42;;;;;;;5.14;97.75;97351.28;5114510;28;20059;-69
2024/01/18 10:12:50;;;;;;;2.53;1.77;;;;;;;5.22;97.87;97355.38;5114533;28;20046;-68
2024/01/18 10:15:32;;;;;;;5.70;3.13;;;;;;;5.26;97.84;97346.00;5115312;28;20075;-71
2024/01/18 10:18:02;;;;;;;0.77;0.77;;;;;;;5.31;98.12;97349.31;5115386;28;20035;-70
2024/01/18 10:20:32;;;;;;;2.22;2.03;;;;;;;5.36;98.28;97353.44;5115683;28;20051;-69
2024/01/18 10:23:01;;;;;;;4.30;2.85;;;;;;;5.38;97.93;97346.63;5115441;28;20179;-69
2024/01/18 10:25:33;;;;;;;1.50;1.40;;;;;;;5.16;98.05;97304.91;5115449;28;20389;-71
2024/01/18 10:28:02;;;;;;;4.90;2.72;;;;;;;5.42;98.00;97353.31;5115374;28;20035;-72
2024/01/18 10:30:33;;;;;;;2.17;2.08;;;;;;;5.42;97.51;97357.56;5115257;28;20044;-71
2024/01/18 10:33:02;;;;;;;2.80;1.92;;;;;;;5.42;97.96;97348.25;5113940;28;20035;-70
2024/01/18 10:35:33;;;;;;;2.90;2.47;;;;;;;5.40;98.12;97346.59;5115444;28;20058;-70
2024/01/18 10:38:03;;;;;;;1.48;1.38;;;;;;;5.36;98.01;97338.25;5102843;28;20036;-69
2024/01/18 10:40:36;;;;;;;2.15;1.80;;;;;;;5.37;97.65;97339.91;5104399;28;20065;-70
2024/01/18 10:43:07;;;;;;;1.33;1.23;;;;;;;5.38;98.07;97336.53;5102107;28;20395;-71
2024/01/18 10:45:37;;;;;;;1.17;1.15;;;;;;;5.38;98.10;97336.53;5102248;28;20039;-69
2024/01/18 10:48:06;;;;;;;;;;;;;;;5.37;98.18;97327.25;5103957;28;20032;-69
2024/01/18 10:50:36;;;;;;;3.78;3.47;;;;;;;5.37;97.97;97329.78;5103725;28;19965;-69
2024/01/18 10:53:08;;;;;;;2.50;2.28;;;;;;;5.36;97.82;97325.63;5103216;28;20038;-69
2024/01/18 10:55:38;;;;;;;3.30;2.35;;;;;;;5.36;98.18;97333.19;5100404;28;20063;-71
2024/01/18 10:58:08;;;;;;;1.63;1.48;;;;;;;5.36;97.91;97333.19;5094108;28;20040;-71
2024/01/18 11:00:37;;;;;;;2.45;2.25;;;;;;;5.30;98.04;97330.75;5093155;28;20054;-70
2024/01/18 11:03:09;;;;;;;0.82;0.82;;;;;;;5.30;97.77;97330.75;5094489;28;20121;-70
2024/01/18 11:05:39;;;;;;;0.70;0.70;;;;;;;5.29;97.74;97320.69;5094389;28;20037;-70
2024/01/18 11:08:08;;;;;;;3.53;2.30;;;;;;;5.24;98.05;97317.41;5094422;28;20054;-71
2024/01/18 11:10:39;;;;;;;2.22;2.05;;;;;;;5.29;98.30;97321.53;5093979;28;20522;-70
2024/01/18 11:13:10;;;;;;;4.45;3.90;;;;;;;5.31;98.05;97321.50;5094121;28;20432;-71
2024/01/18 11:15:41;;;;;;;0.82;0.75;;;;;;;5.33;97.68;97317.22;5094103;28;20050;-72
2024/01/18 11:18:11;;;;;;;6.55;1.98;;;;;;;5.34;97.96;97327.34;5093888;28;20046;-70
2024/01/18 11:21:04;;;;;;;4.47;3.25;;;;;;;5.32;97.89;97321.47;5093779;28;20048;-70
2024/01/18 11:23:37;;;;;;;2.20;1.42;;;;;;;5.30;98.26;97315.59;5084987;28;20101;-69
2024/01/18 11:26:10;;;;;;;2.10;1.90;;;;;;;5.30;98.01;97313.06;5093686;28;20410;-71
2024/01/18 11:28:38;;;;;;;2.17;1.95;;;;;;;5.28;98.15;97312.25;5093970;28;20474;-69
2024/01/18 11:31:07;;;;;;;0.63;0.63;;;;;;;5.28;98.08;97314.78;5093756;28;20052;-71
2024/01/18 11:33:37;;;;;;;1.02;0.93;;;;;;;5.29;98.00;97303.81;5094112;28;20498;-70
2024/01/18 11:36:09;;;;;;;1.70;1.60;;;;;;;5.28;97.97;97303.84;5093952;28;20363;-71
2024/01/18 11:38:45;;;;;;;2.58;2.38;;;;;;;5.32;97.84;97306.31;5093868;28;20040;-69
2024/01/18 11:41:26;;;;;;;2.30;2.10;;;;;;;5.33;98.04;97302.91;5093962;28;20050;-71
2024/01/18 11:43:58;;;;;;;1.30;1.20;;;;;;;5.35;98.11;97306.22;5093634;28;20490;-71
2024/01/18 11:46:34;;;;;;;1.73;1.63;;;;;;;5.38;98.18;97290.16;5093847;28;20048;-70
2024/01/18 11:49:03;;;;;;;3.67;2.38;;;;;;;5.44;98.25;97290.06;5093600;28;20048;-70
2024/01/18 11:51:32;;;;;;;;;;;;;;;5.48;98.11;97285.78;5093894;28;20539;-72
2024/01/18 11:54:02;;;;;;;4.05;2.58;;;;;;;5.51;98.40;97290.78;5093923;28;19965;-70
2024/01/18 11:56:36;;;;;;;;;;;;;;;5.53;97.97;97305.06;5093714;28;20046;-70